Time;durP1;ratioP1;P1;durP2;ratioP2;P2;SDS_P1;SDS_P2;PMS_P1;PMS_P2;Temp;Humidity;BMP_temperature;BMP_pressure;BME280_temperature;BME280_humidity;BME280_pressure;Samples;Min_cycle;Max_cycle;Signal;HPM_P1;HPM_P2
2023/11/05 00:01:12;;;;;;;2.30;1.10;;;;;;;9.17;69.70;95229.69;5010764;28;102918;-70
2023/11/05 00:03:39;;;;;;;2.28;1.08;;;;;;;9.16;69.75;95216.72;5005401;28;104255;-70
2023/11/05 00:06:07;;;;;;;2.78;1.25;;;;;;;9.12;69.62;95222.50;4990559;28;103525;-70
2023/11/05 00:08:35;;;;;;;1.13;0.98;;;;;;;9.14;69.65;95230.16;4988882;28;102766;-70
2023/11/05 00:11:07;;;;;;;1.17;0.70;;;;;;;9.21;69.67;95227.34;5010471;28;102864;-70
2023/11/05 00:13:35;;;;;;;1.92;1.20;;;;;;;9.20;69.43;95216.00;4999109;28;104358;-70
2023/11/05 00:16:03;;;;;;;1.23;1.08;;;;;;;9.18;69.13;95220.69;5004016;28;103115;-70
2023/11/05 00:18:31;;;;;;;1.55;1.05;;;;;;;9.08;69.60;95218.75;5009202;28;102608;-70
2023/11/05 00:20:59;;;;;;;1.33;0.90;;;;;;;9.15;68.78;95208.00;5009210;28;102560;-70
2023/11/05 00:23:27;;;;;;;1.20;1.05;;;;;;;9.15;68.90;95204.56;5007443;28;103994;-70
2023/11/05 00:25:55;;;;;;;1.67;1.10;;;;;;;9.12;68.73;95200.56;5007825;28;103290;-70
2023/11/05 00:28:24;;;;;;;2.40;1.40;;;;;;;9.16;68.96;95206.16;5005989;28;102563;-70
2023/11/05 00:30:52;;;;;;;1.48;1.00;;;;;;;9.17;68.28;95192.72;4997901;28;104583;-70
2023/11/05 00:33:20;;;;;;;3.25;1.20;;;;;;;9.16;68.63;95177.91;4990308;28;103436;-70
2023/11/05 00:35:48;;;;;;;1.00;0.90;;;;;;;9.16;68.36;95175.28;4988927;28;103217;-69
2023/11/05 00:38:16;;;;;;;1.27;0.93;;;;;;;9.15;68.66;95175.53;5010435;28;102712;-69
2023/11/05 00:40:44;;;;;;;1.55;1.13;;;;;;;9.08;68.79;95176.50;5008726;28;103806;-70
2023/11/05 00:43:12;;;;;;;2.40;0.88;;;;;;;9.12;68.65;95185.53;5001967;28;103188;-70
2023/11/05 00:45:42;;;;;;;1.35;0.85;;;;;;;9.12;68.80;95184.75;4990181;28;103264;-70
2023/11/05 00:48:10;;;;;;;1.75;1.15;;;;;;;9.12;68.64;95174.97;5012254;28;102626;-70
2023/11/05 00:50:37;;;;;;;1.52;1.15;;;;;;;9.13;68.35;95163.38;4990690;28;103366;-70
2023/11/05 00:53:06;;;;;;;2.17;1.17;;;;;;;9.07;68.67;95166.97;4986044;28;103403;-69
2023/11/05 00:55:36;;;;;;;1.17;1.00;;;;;;;9.07;68.63;95145.06;5000986;28;103206;-70
2023/11/05 00:58:04;;;;;;;1.38;1.17;;;;;;;9.03;68.82;95144.75;4986813;28;102820;-70
2023/11/05 01:00:33;;;;;;;0.88;0.82;;;;;;;9.02;68.51;95137.88;4988032;28;102799;-70
2023/11/05 01:03:02;;;;;;;1.95;0.93;;;;;;;9.00;68.54;95139.97;4988271;28;104079;-70
2023/11/05 01:05:30;;;;;;;0.95;0.90;;;;;;;9.02;68.40;95137.09;4983584;28;104269;-70
2023/11/05 01:07:58;;;;;;;2.33;1.10;;;;;;;9.05;68.32;95142.69;4990807;28;103284;-70
2023/11/05 01:10:26;;;;;;;1.30;1.08;;;;;;;9.05;68.38;95134.78;5010654;28;102660;-70
2023/11/05 01:12:54;;;;;;;0.90;0.90;;;;;;;9.06;68.64;95138.19;5012663;28;103165;-69
2023/11/05 01:15:23;;;;;;;1.10;1.00;;;;;;;9.04;68.43;95138.44;4991359;28;103431;-70
2023/11/05 01:17:53;;;;;;;0.80;0.80;;;;;;;9.01;68.23;95120.44;5003829;28;102667;-70
2023/11/05 01:20:22;;;;;;;1.10;1.00;;;;;;;9.00;68.12;95129.44;4988472;28;102760;-70
2023/11/05 01:22:51;;;;;;;1.10;0.90;;;;;;;8.95;68.20;95116.97;4985423;28;104375;-70
2023/11/05 01:25:19;;;;;;;0.90;0.85;;;;;;;8.99;68.27;95112.00;5010791;28;103859;-69
2023/11/05 01:27:47;;;;;;;1.08;0.98;;;;;;;9.02;67.61;95103.56;4991404;28;102629;-70
2023/11/05 01:30:15;;;;;;;1.10;0.95;;;;;;;8.98;68.49;95094.56;5005515;28;103097;-70
2023/11/05 01:32:43;;;;;;;0.90;0.90;;;;;;;9.06;67.33;95095.97;5009042;28;103255;-69
2023/11/05 01:35:14;;;;;;;1.88;1.10;;;;;;;9.17;67.42;95091.59;4990942;28;103529;-70
2023/11/05 01:37:43;;;;;;;2.38;1.02;;;;;;;9.19;67.66;95086.88;5004068;28;103056;-69
2023/11/05 01:40:12;;;;;;;0.95;0.90;;;;;;;9.18;67.49;95088.69;4995327;28;103128;-70
2023/11/05 01:42:40;;;;;;;2.25;1.02;;;;;;;9.19;67.38;95089.50;5003558;28;103246;-70
2023/11/05 01:45:09;;;;;;;2.83;1.15;;;;;;;9.24;66.83;95092.19;4984671;28;103415;-69
2023/11/05 01:47:37;;;;;;;3.53;1.05;;;;;;;9.20;67.15;95070.00;5004990;28;102608;-70
2023/11/05 01:50:06;;;;;;;0.98;0.90;;;;;;;9.16;66.80;95063.59;4992898;28;102722;-69
2023/11/05 01:52:35;;;;;;;1.17;1.00;;;;;;;9.21;66.27;95045.16;4984183;28;103220;-69
2023/11/05 01:55:06;;;;;;;5.15;1.65;;;;;;;9.24;66.34;95049.97;4980272;28;103741;-69
2023/11/05 01:57:34;;;;;;;2.38;1.00;;;;;;;9.22;66.34;95038.84;4992117;28;102967;-69
2023/11/05 02:00:05;;;;;;;1.63;1.17;;;;;;;9.25;66.19;95041.00;5012632;27;102770;-69
2023/11/05 02:02:40;;;;;;;2.35;1.17;;;;;;;9.23;65.66;95038.59;5009934;27;103009;-70
2023/11/05 02:05:09;;;;;;;0.98;0.88;;;;;;;9.27;65.46;95033.59;4993711;28;102971;-69
2023/11/05 02:07:37;;;;;;;3.72;1.20;;;;;;;9.32;65.54;95027.59;4989251;28;102626;-69
2023/11/05 02:10:08;;;;;;;0.80;0.80;;;;;;;9.35;65.27;95035.78;4987351;28;102697;-70
2023/11/05 02:12:36;;;;;;;2.72;1.08;;;;;;;9.39;64.99;95025.53;5002993;28;103210;-70
2023/11/05 02:15:05;;;;;;;1.25;0.88;;;;;;;9.43;65.05;95021.34;5008334;28;103231;-70
2023/11/05 02:17:34;;;;;;;1.45;1.08;;;;;;;9.45;65.00;95022.69;5011841;28;102742;-70
2023/11/05 02:20:06;;;;;;;2.20;1.17;;;;;;;9.41;65.21;95018.94;4993071;28;103933;-69
2023/11/05 02:22:37;;;;;;;2.45;0.95;;;;;;;9.44;64.82;95002.59;5006937;28;103213;-69
2023/11/05 02:25:08;;;;;;;2.63;1.00;;;;;;;9.49;64.36;94998.41;4993721;28;103300;-70
2023/11/05 02:27:36;;;;;;;4.38;1.10;;;;;;;9.50;64.46;94998.16;4990525;28;102738;-69
2023/11/05 02:30:05;;;;;;;1.67;1.15;;;;;;;9.52;63.70;94977.56;5005731;28;103578;-70
2023/11/05 02:32:33;;;;;;;1.40;1.00;;;;;;;9.55;63.70;94982.34;5013181;28;103343;-70
2023/11/05 02:35:01;;;;;;;1.92;1.00;;;;;;;9.59;63.72;94982.66;5010082;28;103248;-70
2023/11/05 02:37:29;;;;;;;3.47;1.30;;;;;;;9.57;63.48;94977.59;4988880;28;102971;-70
2023/11/05 02:39:57;;;;;;;3.78;1.35;;;;;;;9.63;63.52;94967.88;4988113;28;102744;-69
2023/11/05 02:42:28;;;;;;;3.45;1.08;;;;;;;9.59;63.27;94961.53;5008337;28;103910;-70
2023/11/05 02:44:59;;;;;;;4.18;1.30;;;;;;;9.63;62.95;94968.66;4989256;28;103217;-70
2023/11/05 02:47:27;;;;;;;4.15;1.45;;;;;;;9.68;62.70;94954.72;4991792;28;103883;-69
2023/11/05 02:49:55;;;;;;;2.63;1.08;;;;;;;9.62;63.05;94953.06;4993045;28;102683;-69
2023/11/05 02:52:23;;;;;;;1.95;1.20;;;;;;;9.69;62.91;94953.63;4990418;28;103351;-70
2023/11/05 02:54:51;;;;;;;1.65;1.10;;;;;;;9.72;62.31;94950.50;4991854;28;104169;-70
2023/11/05 02:57:20;;;;;;;5.05;1.20;;;;;;;9.74;62.08;94945.75;5006687;28;102661;-69
2023/11/05 02:59:53;;;;;;;2.70;1.17;;;;;;;9.76;62.64;94941.00;4989681;28;102743;-70
2023/11/05 03:02:21;;;;;;;3.65;1.13;;;;;;;9.73;61.88;94928.31;4993823;28;103956;-69
2023/11/05 03:04:49;;;;;;;3.70;1.50;;;;;;;9.78;61.94;94941.53;5015383;27;103385;-69
2023/11/05 03:07:17;;;;;;;3.90;1.50;;;;;;;9.82;61.31;94923.31;5012506;28;102640;-69
2023/11/05 03:09:45;;;;;;;4.00;1.40;;;;;;;9.90;60.93;94924.69;4992352;28;103350;-70
2023/11/05 03:12:13;;;;;;;4.38;1.65;;;;;;;9.93;61.40;94922.34;4991079;28;104379;-70
2023/11/05 03:14:41;;;;;;;1.85;1.00;;;;;;;9.93;60.78;94903.03;4992040;28;103380;-69
2023/11/05 03:17:10;;;;;;;5.18;1.88;;;;;;;9.99;60.21;94906.50;5009296;28;103860;-70
2023/11/05 03:19:39;;;;;;;6.47;1.23;;;;;;;10.05;59.93;94906.28;4993544;28;102745;-69
2023/11/05 03:22:07;;;;;;;4.57;1.40;;;;;;;10.02;60.38;94906.78;5003188;28;103293;-69
2023/11/05 03:24:35;;;;;;;2.58;1.33;;;;;;;10.02;60.14;94906.78;4988145;28;103226;-70
2023/11/05 03:27:03;;;;;;;3.13;1.40;;;;;;;10.04;60.17;94902.03;4993851;28;102682;-70
2023/11/05 03:29:33;;;;;;;4.40;1.35;;;;;;;10.05;60.21;94900.97;4989055;28;102871;-70
2023/11/05 03:32:01;;;;;;;3.80;1.80;;;;;;;10.05;59.75;94893.06;5008597;28;102997;-70
2023/11/05 03:34:31;;;;;;;2.33;1.42;;;;;;;10.07;59.21;94888.31;4992939;28;103411;-70
2023/11/05 03:36:59;;;;;;;2.85;1.55;;;;;;;10.07;59.66;94898.88;5011794;28;102815;-69
2023/11/05 03:39:27;;;;;;;2.88;1.23;;;;;;;10.07;59.71;94896.25;4992583;28;102795;-70
2023/11/05 03:41:55;;;;;;;2.05;1.30;;;;;;;10.05;59.79;94898.34;4990860;28;103591;-69
2023/11/05 03:44:23;;;;;;;2.88;1.42;;;;;;;10.07;59.76;94890.97;4986292;28;103201;-69
2023/11/05 03:46:51;;;;;;;4.88;1.60;;;;;;;10.04;59.80;94888.03;5004404;28;103253;-70
2023/11/05 03:49:19;;;;;;;4.00;1.35;;;;;;;10.09;59.78;94894.13;5012205;28;103193;-69
2023/11/05 03:51:48;;;;;;;2.60;1.58;;;;;;;10.08;59.67;94889.88;4989920;28;103489;-70
2023/11/05 03:54:17;;;;;;;2.47;1.40;;;;;;;10.09;59.68;94890.69;5010529;28;103232;-70
2023/11/05 03:56:44;;;;;;;2.05;1.20;;;;;;;10.08;59.46;94900.47;4988715;28;102689;-69
2023/11/05 03:59:15;;;;;;;3.65;1.27;;;;;;;10.07;59.75;94901.53;4991431;28;102788;-69
2023/11/05 04:01:43;;;;;;;2.88;1.50;;;;;;;10.05;59.68;94890.41;5012685;28;104139;-70
2023/11/05 04:04:11;;;;;;;3.58;1.60;;;;;;;10.05;59.46;94898.34;5010546;28;103019;-69
2023/11/05 04:06:39;;;;;;;6.75;1.77;;;;;;;10.07;59.45;94898.88;5013492;28;102776;-69
2023/11/05 04:09:08;;;;;;;3.78;1.65;;;;;;;10.08;59.24;94897.03;5005018;28;102802;-69
2023/11/05 04:11:39;;;;;;;3.85;1.42;;;;;;;10.10;58.88;94874.56;4991010;28;104404;-69
2023/11/05 04:14:11;;;;;;;4.55;1.40;;;;;;;10.17;59.23;94886.75;4986151;28;103240;-69
2023/11/05 04:16:39;;;;;;;3.65;1.60;;;;;;;10.17;59.17;94894.69;4990843;28;102755;-69
2023/11/05 04:19:15;;;;;;;4.50;1.55;;;;;;;10.18;58.95;94889.13;4983822;28;103017;-69
2023/11/05 04:21:43;;;;;;;4.30;1.30;;;;;;;10.18;58.92;94902.34;5013601;28;103313;-70
2023/11/05 04:24:13;;;;;;;3.30;1.65;;;;;;;10.24;58.96;94908.47;4990547;28;103251;-70
2023/11/05 04:26:41;;;;;;;4.18;1.65;;;;;;;10.20;58.82;94908.16;4990288;28;102797;-69
2023/11/05 04:29:08;;;;;;;4.70;1.70;;;;;;;10.18;59.04;94905.00;4988156;28;103092;-70
2023/11/05 04:31:38;;;;;;;2.25;1.20;;;;;;;10.20;59.24;94897.59;5005713;28;104332;-70
2023/11/05 04:34:09;;;;;;;3.78;1.63;;;;;;;10.23;59.13;94901.56;5005218;28;103237;-70
2023/11/05 04:36:43;;;;;;;3.10;1.13;;;;;;;10.13;59.63;94903.13;4993762;28;103691;-69
2023/11/05 04:39:13;;;;;;;2.10;1.23;;;;;;;10.19;59.33;94913.72;5010771;28;102597;-70
2023/11/05 04:41:41;;;;;;;2.80;1.20;;;;;;;10.16;59.80;94901.81;4991795;28;103498;-69
2023/11/05 04:44:09;;;;;;;2.60;1.30;;;;;;;10.19;59.57;94889.91;5007386;28;103272;-70
2023/11/05 04:46:40;;;;;;;3.20;1.10;;;;;;;10.19;59.53;94884.63;5011278;28;102824;-70
2023/11/05 04:49:08;;;;;;;2.42;1.23;;;;;;;10.22;59.25;94884.13;4990612;28;103049;-69
2023/11/05 04:51:36;;;;;;;5.10;1.58;;;;;;;10.19;59.60;94889.91;5003024;28;103297;-70
2023/11/05 04:54:05;;;;;;;3.05;1.60;;;;;;;10.21;59.67;94901.06;4993517;28;103300;-69
2023/11/05 04:56:34;;;;;;;6.22;1.50;;;;;;;10.19;59.45;94890.75;5012344;28;102746;-70
2023/11/05 04:59:02;;;;;;;1.48;1.27;;;;;;;10.25;59.59;94888.91;5006044;28;102762;-70
2023/11/05 05:01:30;;;;;;;2.25;1.40;;;;;;;10.24;59.77;94898.66;5007415;28;103328;-70
2023/11/05 05:03:59;;;;;;;4.90;1.35;;;;;;;10.25;59.69;94894.97;4988246;28;103229;-69
2023/11/05 05:06:28;;;;;;;2.90;1.48;;;;;;;10.25;59.75;94899.47;5014716;28;102668;-70
2023/11/05 05:08:59;;;;;;;1.77;1.20;;;;;;;10.25;59.83;94912.69;5004594;28;102843;-70
2023/11/05 05:11:27;;;;;;;2.30;1.30;;;;;;;10.22;59.84;94911.38;5008053;28;103284;-70
2023/11/05 05:13:56;;;;;;;3.42;1.52;;;;;;;10.25;59.62;94912.69;4985051;28;103480;-70
2023/11/05 05:16:28;;;;;;;4.25;1.52;;;;;;;10.22;59.49;94910.59;5013066;28;102621;-70
2023/11/05 05:18:56;;;;;;;4.57;1.52;;;;;;;10.15;60.70;94902.84;5011760;28;102668;-70
2023/11/05 05:21:24;;;;;;;4.20;1.40;;;;;;;10.16;60.08;94914.25;4985367;28;103305;-70
2023/11/05 05:23:52;;;;;;;3.17;1.58;;;;;;;10.11;60.40;94910.53;5008110;28;103070;-70
2023/11/05 05:26:20;;;;;;;4.57;1.50;;;;;;;10.13;60.37;94918.22;5001934;28;102587;-69
2023/11/05 05:28:49;;;;;;;2.00;1.13;;;;;;;10.18;60.45;94915.59;5007354;28;103885;-70
2023/11/05 05:31:18;;;;;;;2.47;1.23;;;;;;;10.13;60.79;94913.69;5007371;28;103534;-70
2023/11/05 05:33:46;;;;;;;4.45;1.42;;;;;;;10.10;60.86;94908.94;5011306;28;103314;-70
2023/11/05 05:36:16;;;;;;;2.95;1.50;;;;;;;10.17;60.75;94913.19;5009197;28;102712;-70
2023/11/05 05:38:44;;;;;;;3.47;1.70;;;;;;;10.10;61.18;94914.22;5008066;27;102650;-70
2023/11/05 05:41:12;;;;;;;2.97;1.10;;;;;;;10.12;61.07;94914.75;5013978;28;103345;-70
2023/11/05 05:43:40;;;;;;;2.08;1.05;;;;;;;10.06;61.45;94909.69;5007467;28;103259;-70
2023/11/05 05:46:09;;;;;;;2.30;1.20;;;;;;;10.05;61.35;94919.50;5008093;28;102620;-70
2023/11/05 05:48:41;;;;;;;2.17;1.27;;;;;;;10.04;61.36;94920.53;5008344;28;102675;-70
2023/11/05 05:51:09;;;;;;;2.03;1.00;;;;;;;10.02;61.38;94930.59;5006725;28;103279;-70
2023/11/05 05:53:38;;;;;;;2.03;1.13;;;;;;;10.05;61.43;94943.28;4989696;28;103305;-70
2023/11/05 05:56:07;;;;;;;4.75;1.30;;;;;;;10.01;61.24;94942.22;4986774;28;102678;-69
2023/11/05 05:58:35;;;;;;;3.83;1.60;;;;;;;9.91;61.85;94947.44;4990726;28;102858;-70
2023/11/05 06:01:03;;;;;;;4.03;1.65;;;;;;;9.94;62.08;94946.91;4994137;28;103184;-70
2023/11/05 06:03:32;;;;;;;1.92;1.15;;;;;;;9.95;61.98;94940.59;5014628;28;103238;-69
2023/11/05 06:06:02;;;;;;;1.67;1.00;;;;;;;9.91;62.25;94937.66;4990617;28;102724;-70
2023/11/05 06:08:30;;;;;;;2.05;1.10;;;;;;;9.89;62.24;94933.66;5010211;28;102601;-69
2023/11/05 06:10:58;;;;;;;1.45;1.00;;;;;;;9.90;62.35;94940.56;5010794;28;103034;-70
2023/11/05 06:13:26;;;;;;;2.45;1.33;;;;;;;9.85;62.31;94937.88;4995511;28;104189;-70
2023/11/05 06:15:56;;;;;;;3.47;1.60;;;;;;;9.84;62.71;94946.84;5015115;28;102692;-69
2023/11/05 06:18:24;;;;;;;2.13;1.30;;;;;;;9.86;62.61;94952.69;4984562;28;102623;-69
2023/11/05 06:20:54;;;;;;;3.05;1.20;;;;;;;9.81;62.47;94945.50;5013181;28;103243;-70
2023/11/05 06:23:23;;;;;;;3.50;1.30;;;;;;;9.80;62.82;94949.22;5015491;28;102600;-69
2023/11/05 06:25:51;;;;;;;1.55;1.13;;;;;;;9.79;62.85;94948.41;5005410;28;102972;-69
2023/11/05 06:28:19;;;;;;;3.05;1.50;;;;;;;9.80;62.88;94949.22;4995077;28;103280;-69
2023/11/05 06:30:47;;;;;;;4.20;1.63;;;;;;;9.75;63.06;94959.78;5013841;28;103225;-69
2023/11/05 06:33:15;;;;;;;1.50;1.10;;;;;;;9.78;63.07;94962.69;5014618;28;103318;-70
2023/11/05 06:35:45;;;;;;;2.17;1.27;;;;;;;9.75;63.30;94963.19;5013537;28;102659;-70
2023/11/05 06:38:13;;;;;;;2.92;1.40;;;;;;;9.69;63.52;94966.06;4992379;28;102742;-68
2023/11/05 06:40:42;;;;;;;1.27;1.10;;;;;;;9.83;62.89;94964.56;5011566;28;103151;-69
2023/11/05 06:43:11;;;;;;;3.10;1.27;;;;;;;9.81;63.11;94953.44;5011899;28;103288;-70
2023/11/05 06:45:39;;;;;;;2.03;1.10;;;;;;;9.85;63.16;94965.13;5004313;28;102600;-70
2023/11/05 06:48:08;;;;;;;3.67;1.35;;;;;;;9.84;63.31;94962.72;4991643;28;102732;-68
2023/11/05 06:50:37;;;;;;;3.13;1.10;;;;;;;9.85;63.50;94974.88;5013882;27;103241;-69
2023/11/05 06:53:05;;;;;;;3.55;1.60;;;;;;;9.91;63.17;94977.28;5009419;28;103385;-69
2023/11/05 06:55:35;;;;;;;3.97;1.92;;;;;;;9.93;63.28;94982.31;5011141;28;102743;-69
2023/11/05 06:58:05;;;;;;;4.10;1.50;;;;;;;9.90;63.58;95001.34;5007521;28;102672;-69
2023/11/05 07:00:33;;;;;;;3.03;1.23;;;;;;;9.91;63.45;94997.66;5011496;28;104416;-69
2023/11/05 07:03:01;;;;;;;1.33;1.20;;;;;;;9.99;63.51;94999.81;5009725;28;103823;-69
2023/11/05 07:05:29;;;;;;;1.90;1.27;;;;;;;9.98;63.83;95002.72;4998839;28;102867;-69
2023/11/05 07:07:57;;;;;;;1.63;1.20;;;;;;;9.98;63.59;95011.44;5009601;28;104703;-69
2023/11/05 07:10:27;;;;;;;2.40;1.30;;;;;;;10.00;63.72;95011.19;4988498;28;103350;-69
2023/11/05 07:12:55;;;;;;;2.60;1.45;;;;;;;10.04;63.71;95007.78;4989309;28;103404;-69
2023/11/05 07:15:25;;;;;;;1.95;1.10;;;;;;;10.09;63.94;95007.81;5011322;28;104421;-69
2023/11/05 07:17:54;;;;;;;1.42;1.17;;;;;;;10.15;63.83;94995.41;5009652;28;103191;-69
2023/11/05 07:20:22;;;;;;;3.03;1.77;;;;;;;10.32;63.57;95003.16;5009153;28;104194;-69
2023/11/05 07:22:50;;;;;;;2.10;1.30;;;;;;;10.43;63.52;94996.91;5008995;28;103214;-69
2023/11/05 07:25:18;;;;;;;3.05;1.35;;;;;;;10.60;63.09;95006.50;4986503;28;104343;-69
2023/11/05 07:27:46;;;;;;;1.92;1.10;;;;;;;10.88;62.58;95020.34;5012274;28;102684;-69
2023/11/05 07:30:15;;;;;;;1.75;0.90;;;;;;;10.70;62.40;95005.75;5004405;28;103402;-69
2023/11/05 07:32:46;;;;;;;2.72;1.10;;;;;;;10.68;62.90;95003.34;4991853;28;102653;-69
2023/11/05 07:35:14;;;;;;;1.48;0.82;;;;;;;10.60;63.55;95004.66;4985577;28;102679;-69
2023/11/05 07:37:43;;;;;;;2.35;1.10;;;;;;;10.73;63.25;95000.72;5005020;28;102887;-69
2023/11/05 07:40:14;;;;;;;1.77;1.00;;;;;;;10.99;63.17;95013.22;5007236;28;103347;-69
2023/11/05 07:42:44;;;;;;;0.80;0.80;;;;;;;11.25;62.09;94995.53;5011601;28;103307;-69
2023/11/05 07:45:13;;;;;;;1.73;0.80;;;;;;;11.07;62.53;95016.19;5010151;28;102607;-70
2023/11/05 07:47:51;;;;;;;2.13;1.10;;;;;;;11.29;62.09;95001.91;5006974;28;104085;-70
2023/11/05 07:50:22;;;;;;;0.98;0.80;;;;;;;11.65;61.27;95025.78;5011911;28;103626;-70
2023/11/05 07:52:51;;;;;;;2.95;1.20;;;;;;;11.77;60.39;95026.28;5006642;28;104694;-70
2023/11/05 07:55:19;;;;;;;1.00;0.70;;;;;;;11.87;60.06;95022.03;5007061;28;102622;-69
2023/11/05 07:57:47;;;;;;;1.75;0.70;;;;;;;11.98;59.16;95018.34;5013170;27;102915;-69
2023/11/05 08:00:18;;;;;;;3.60;0.85;;;;;;;12.17;58.20;95021.25;4998131;28;103351;-69
2023/11/05 08:02:47;;;;;;;0.80;0.80;;;;;;;12.17;58.63;95031.88;4999368;28;103315;-69
2023/11/05 08:05:16;;;;;;;0.90;0.75;;;;;;;12.18;58.51;95043.25;4998264;28;102645;-70
2023/11/05 08:07:48;;;;;;;0.80;0.80;;;;;;;12.60;57.85;95045.56;5002487;28;102687;-68
2023/11/05 08:10:17;;;;;;;2.80;0.90;;;;;;;12.37;57.67;95052.25;4998793;28;103472;-67
2023/11/05 08:12:48;;;;;;;1.20;0.80;;;;;;;12.61;57.65;95059.63;4977590;28;103218;-68
2023/11/05 08:15:22;;;;;;;0.95;0.90;;;;;;;12.99;57.02;95073.28;4980513;28;102655;-67
2023/11/05 08:17:53;;;;;;;1.02;0.70;;;;;;;12.96;56.19;95081.03;5001079;28;102617;-68
2023/11/05 08:20:23;;;;;;;3.53;1.02;;;;;;;12.99;55.63;95099.84;4996533;28;103334;-68
2023/11/05 08:22:52;;;;;;;0.70;0.70;;;;;;;13.04;56.58;95107.78;4982494;28;103265;-68
2023/11/05 08:25:22;;;;;;;1.55;0.77;;;;;;;13.44;55.79;95110.56;4982716;28;102696;-69
2023/11/05 08:27:51;;;;;;;0.73;0.73;;;;;;;13.23;56.24;95115.16;4977685;28;102684;-69
2023/11/05 08:30:25;;;;;;;1.45;0.90;;;;;;;13.40;55.83;95125.47;4976580;28;103322;-69
2023/11/05 08:32:54;;;;;;;2.50;1.10;;;;;;;13.36;56.36;95130.56;4995675;28;103234;-69
2023/11/05 08:35:22;;;;;;;1.15;0.77;;;;;;;13.26;56.37;95141.97;4999830;28;102968;-69
2023/11/05 08:37:51;;;;;;;0.88;0.85;;;;;;;13.53;56.33;95140.03;5004751;28;102578;-68
2023/11/05 08:40:25;;;;;;;1.00;0.80;;;;;;;13.15;56.75;95152.91;4999348;28;104103;-69
2023/11/05 08:42:53;;;;;;;1.52;0.77;;;;;;;12.83;57.28;95154.09;4982586;28;103405;-69
2023/11/05 08:45:21;;;;;;;1.42;0.95;;;;;;;13.14;57.02;95153.97;4987242;28;102643;-69
2023/11/05 08:47:49;;;;;;;2.03;1.15;;;;;;;13.30;56.68;95158.19;5002206;28;102730;-69
2023/11/05 08:50:19;;;;;;;2.30;0.90;;;;;;;13.40;56.77;95163.50;5003189;28;104084;-69
2023/11/05 08:52:47;;;;;;;1.35;1.10;;;;;;;13.79;56.37;95169.13;4985915;28;104327;-69
2023/11/05 08:55:17;;;;;;;0.95;0.63;;;;;;;13.22;57.18;95164.06;5000107;28;102524;-69
2023/11/05 08:57:47;;;;;;;7.00;1.20;;;;;;;13.67;56.37;95174.78;4984792;28;104068;-69
2023/11/05 09:00:15;;;;;;;2.28;1.33;;;;;;;13.33;56.92;95170.91;5000484;28;103405;-69
2023/11/05 09:02:43;;;;;;;1.08;0.75;;;;;;;13.67;56.33;95178.22;5003247;28;103381;-69
2023/11/05 09:05:12;;;;;;;1.15;0.80;;;;;;;13.48;56.62;95182.59;5003864;28;102671;-69
2023/11/05 09:07:42;;;;;;;4.03;1.23;;;;;;;13.79;56.33;95199.19;5007086;28;104266;-68
2023/11/05 09:10:15;;;;;;;1.25;1.00;;;;;;;13.77;55.93;95215.41;5004826;28;103514;-69
2023/11/05 09:12:43;;;;;;;1.30;1.03;;;;;;;13.63;56.31;95217.06;4985423;28;103161;-69
2023/11/05 09:15:20;;;;;;;0.77;0.77;;;;;;;13.71;56.50;95226.34;5006300;28;102964;-69
2023/11/05 09:17:48;;;;;;;0.88;0.80;;;;;;;13.80;55.92;95223.94;5005865;28;102688;-69
2023/11/05 09:20:16;;;;;;;1.40;1.05;;;;;;;13.83;56.38;95234.00;5005047;28;103526;-69
2023/11/05 09:22:46;;;;;;;0.60;0.60;;;;;;;13.92;54.92;95250.97;4981068;28;102997;-69
2023/11/05 09:25:18;;;;;;;0.85;0.85;;;;;;;14.13;55.15;95258.88;4987522;28;102699;-69
2023/11/05 09:27:46;;;;;;;1.20;0.98;;;;;;;14.10;55.32;95250.34;5005769;28;102866;-68
2023/11/05 09:30:14;;;;;;;1.25;0.90;;;;;;;13.90;56.03;95261.13;5005569;28;103452;-69
2023/11/05 09:32:45;;;;;;;1.55;0.88;;;;;;;13.92;56.43;95254.44;5004899;28;103224;-69
2023/11/05 09:35:14;;;;;;;1.50;0.90;;;;;;;14.21;55.98;95267.06;4984385;28;103115;-69
2023/11/05 09:37:45;;;;;;;2.83;1.30;;;;;;;14.33;54.15;95271.25;5004969;28;102650;-69
2023/11/05 09:40:15;;;;;;;0.82;0.73;;;;;;;14.33;55.20;95284.56;5001463;28;103239;-68
2023/11/05 09:42:52;;;;;;;1.10;0.70;;;;;;;14.07;55.36;95298.81;5002493;28;103289;-68
2023/11/05 09:45:21;;;;;;;1.45;1.00;;;;;;;13.89;55.15;95294.88;5005797;28;102652;-68
2023/11/05 09:47:54;;;;;;;1.48;0.90;;;;;;;14.06;55.07;95310.50;4982568;28;103106;-67
2023/11/05 09:50:32;;;;;;;1.50;0.90;;;;;;;13.61;55.32;95312.25;4995400;28;104056;-65
2023/11/05 09:53:05;;;;;;;0.70;0.70;;;;;;;14.01;56.19;95326.50;4981433;28;104426;-67
2023/11/05 09:55:42;;;;;;;1.63;1.15;;;;;;;14.03;55.10;95329.69;4998474;28;102888;-67
2023/11/05 09:58:12;;;;;;;0.80;0.80;;;;;;;14.07;55.28;95336.06;5002237;28;103755;-65
2023/11/05 10:00:40;;;;;;;0.68;0.68;;;;;;;13.96;55.43;95350.47;4999732;28;103355;-66
2023/11/05 10:03:12;;;;;;;1.00;0.80;;;;;;;13.87;55.85;95376.03;4998670;28;103284;-65
2023/11/05 10:05:42;;;;;;;1.40;0.85;;;;;;;13.68;55.68;95376.59;4998477;28;102666;-66
2023/11/05 10:08:12;;;;;;;1.67;0.88;;;;;;;13.30;56.35;95381.41;4995596;28;103001;-67
2023/11/05 10:10:42;;;;;;;2.08;0.82;;;;;;;13.42;56.42;95379.31;4996799;28;103887;-66
2023/11/05 10:13:11;;;;;;;2.60;0.93;;;;;;;12.99;59.12;95384.06;4999712;28;103337;-67
2023/11/05 10:15:42;;;;;;;1.02;0.70;;;;;;;13.16;58.99;95380.38;5001794;28;103816;-66
2023/11/05 10:18:16;;;;;;;1.40;0.80;;;;;;;13.30;58.51;95392.06;4986371;28;102735;-67
2023/11/05 10:20:50;;;;;;;1.20;0.70;;;;;;;13.02;59.44;95404.00;5003305;28;103225;-67
2023/11/05 10:23:18;;;;;;;1.00;0.85;;;;;;;12.86;60.34;95409.28;5001835;28;103874;-66
2023/11/05 10:25:48;;;;;;;1.27;0.73;;;;;;;12.63;61.52;95409.75;4974236;28;102913;-67
2023/11/05 10:28:16;;;;;;;2.45;1.30;;;;;;;12.49;62.34;95418.22;4998531;28;103073;-67
2023/11/05 10:30:47;;;;;;;3.42;1.65;;;;;;;12.39;63.95;95428.81;5002427;28;103337;-66
2023/11/05 10:33:19;;;;;;;6.10;1.23;;;;;;;12.36;65.40;95453.22;4994448;28;103219;-66
2023/11/05 10:35:56;;;;;;;0.98;0.82;;;;;;;12.37;65.36;95438.91;4999266;28;102680;-67
2023/11/05 10:38:26;;;;;;;1.35;1.00;;;;;;;12.28;65.59;95450.00;4998481;28;102833;-67
2023/11/05 10:40:56;;;;;;;1.38;1.00;;;;;;;12.08;67.32;95458.66;4995592;28;103279;-64
2023/11/05 10:43:25;;;;;;;1.25;0.90;;;;;;;12.07;67.29;95450.97;4998333;28;103277;-64
2023/11/05 10:46:06;;;;;;;0.98;0.80;;;;;;;12.50;66.85;95456.19;4991743;28;103041;-64
2023/11/05 10:48:37;;;;;;;1.52;0.80;;;;;;;12.33;67.58;95462.50;5001805;28;103706;-66
2023/11/05 10:51:06;;;;;;;2.05;0.90;;;;;;;12.54;67.47;95470.56;5000066;28;103273;-66
2023/11/05 10:53:36;;;;;;;1.73;0.95;;;;;;;12.77;66.74;95475.41;4986965;28;103316;-65
2023/11/05 10:56:29;;;;;;;3.03;1.30;;;;;;;12.61;67.59;95476.41;4983365;28;102819;-67
2023/11/05 10:58:57;;;;;;;1.95;1.30;;;;;;;12.44;67.67;95488.03;4990701;28;103034;-67
2023/11/05 11:01:29;;;;;;;1.35;0.90;;;;;;;12.30;67.09;95491.41;4976560;28;104255;-67
2023/11/05 11:04:09;;;;;;;1.33;1.02;;;;;;;12.29;68.20;95487.94;4997890;28;103192;-67
2023/11/05 11:06:39;;;;;;;2.63;1.00;;;;;;;12.22;68.34;95490.03;4996196;28;102866;-67
2023/11/05 11:09:11;;;;;;;1.35;0.73;;;;;;;12.16;68.76;95501.69;4996385;28;104151;-67
2023/11/05 11:11:41;;;;;;;1.40;1.13;;;;;;;11.97;68.72;95491.47;4976176;28;104224;-67
2023/11/05 11:14:10;;;;;;;2.33;1.05;;;;;;;11.96;69.71;95502.34;4999623;28;103393;-67
2023/11/05 11:16:42;;;;;;;1.02;0.88;;;;;;;11.83;70.19;95508.84;4997095;28;102939;-66
2023/11/05 11:19:14;;;;;;;1.88;0.95;;;;;;;12.07;69.92;95518.06;5000529;28;103671;-65
2023/11/05 11:21:50;;;;;;;2.67;0.90;;;;;;;11.93;70.21;95516.88;4996888;28;103586;-67
2023/11/05 11:24:33;;;;;;;3.10;1.13;;;;;;;11.91;70.77;95526.97;4997716;28;103273;-67
2023/11/05 11:27:04;;;;;;;1.30;1.00;;;;;;;11.72;70.76;95527.31;4979418;28;103009;-64
2023/11/05 11:29:33;;;;;;;2.08;1.05;;;;;;;11.84;71.36;95531.66;4993401;28;102743;-66
2023/11/05 11:32:02;;;;;;;1.67;1.10;;;;;;;11.74;71.47;95533.19;4979280;28;103527;-65
2023/11/05 11:34:32;;;;;;;2.53;1.25;;;;;;;11.51;72.02;95544.13;4978025;28;103321;-65
2023/11/05 11:37:04;;;;;;;1.85;1.00;;;;;;;11.63;71.81;95543.97;4996187;28;102719;-63
2023/11/05 11:39:33;;;;;;;2.40;1.08;;;;;;;11.99;71.34;95541.63;4997869;28;102657;-63